createdAt,value
2022-08-24T00:00:45.083Z,18.02
2022-08-24T00:01:45.048Z,18.00
2022-08-24T00:02:45.197Z,18.05
2022-08-24T00:03:45.022Z,17.90
2022-08-24T00:04:46.739Z,17.95
2022-08-24T00:05:45.021Z,17.96
2022-08-24T00:06:44.990Z,17.96
2022-08-24T00:07:44.976Z,17.97
2022-08-24T00:08:44.969Z,17.90
2022-08-24T00:09:44.975Z,18.00
2022-08-24T00:10:45.965Z,17.96
2022-08-24T00:11:44.931Z,17.92
2022-08-24T00:12:44.921Z,17.89
2022-08-24T00:13:44.914Z,17.97
2022-08-24T00:14:44.920Z,17.89
2022-08-24T00:15:44.888Z,17.86
2022-08-24T00:16:44.975Z,17.77
2022-08-24T00:17:44.865Z,17.78
2022-08-24T00:18:44.876Z,17.70
2022-08-24T00:19:44.863Z,17.66
2022-08-24T00:20:45.376Z,17.63
2022-08-24T00:21:44.841Z,17.68
2022-08-24T00:22:44.810Z,17.64
2022-08-24T00:23:44.818Z,17.56
2022-08-24T00:24:44.786Z,17.58
2022-08-24T00:25:44.773Z,17.66
2022-08-24T00:26:44.763Z,17.54
2022-08-24T00:27:44.750Z,17.63
2022-08-24T00:28:44.835Z,17.68
2022-08-24T00:29:44.728Z,17.56
2022-08-24T00:30:44.719Z,17.58
2022-08-24T00:31:44.770Z,17.52
2022-08-24T00:32:44.719Z,17.46
2022-08-24T00:33:44.703Z,17.46
2022-08-24T00:34:51.898Z,17.41
2022-08-24T00:35:45.660Z,17.37
2022-08-24T00:36:44.651Z,17.44
2022-08-24T00:37:44.638Z,17.37
2022-08-24T00:38:44.651Z,17.40
2022-08-24T00:39:44.706Z,17.38
2022-08-24T00:40:44.888Z,17.33
2022-08-24T00:41:44.597Z,17.30
2022-08-24T00:42:44.590Z,17.30
2022-08-24T00:43:44.573Z,17.28
2022-08-24T00:44:44.875Z,17.25
2022-08-24T00:45:44.631Z,17.26
2022-08-24T00:46:44.538Z,17.18
2022-08-24T00:47:47.763Z,17.16
2022-08-24T00:48:44.517Z,17.15
2022-08-24T00:49:44.503Z,17.15
2022-08-24T00:50:44.495Z,17.07
2022-08-24T00:51:44.502Z,17.11
2022-08-24T00:52:44.470Z,17.15
2022-08-24T00:53:44.457Z,17.14
2022-08-24T00:54:46.474Z,17.07
2022-08-24T00:55:44.434Z,17.03
2022-08-24T00:56:44.446Z,17.06
2022-08-24T00:57:44.413Z,17.06
2022-08-24T00:58:44.425Z,17.08
2022-08-24T00:59:44.390Z,17.03
2022-08-24T01:00:46.335Z,16.97
2022-08-24T01:01:44.460Z,17.04
2022-08-24T01:02:44.401Z,16.96
2022-08-24T01:03:44.346Z,16.98
2022-08-24T01:04:44.356Z,16.97
2022-08-24T01:05:44.344Z,17.00
2022-08-24T01:06:44.316Z,16.88
2022-08-24T01:07:44.300Z,16.85
2022-08-24T01:08:44.292Z,16.93
2022-08-24T01:09:44.299Z,16.94
2022-08-24T01:10:44.268Z,16.89
2022-08-24T01:11:44.280Z,16.82
2022-08-24T01:12:59.551Z,16.85
2022-08-24T01:13:45.230Z,16.91
2022-08-24T01:14:44.224Z,16.83
2022-08-24T01:15:44.210Z,16.83
2022-08-24T01:16:44.348Z,16.89
2022-08-24T01:17:44.209Z,16.76
2022-08-24T01:18:44.180Z,16.83
2022-08-24T01:19:44.171Z,16.82
2022-08-24T01:20:44.212Z,16.75
2022-08-24T01:21:44.188Z,16.71
2022-08-24T01:22:44.212Z,16.75
2022-08-24T01:23:44.148Z,16.70
2022-08-24T01:24:44.112Z,16.63
2022-08-24T01:25:44.097Z,16.63
2022-08-24T01:26:44.090Z,16.71
2022-08-24T01:27:44.096Z,16.63
2022-08-24T01:28:44.170Z,16.71
2022-08-24T01:29:44.051Z,16.73
2022-08-24T01:30:44.094Z,16.82
2022-08-24T01:31:44.124Z,16.89
2022-08-24T01:32:44.041Z,16.89
2022-08-24T01:33:44.005Z,16.89
2022-08-24T01:34:43.997Z,16.86
2022-08-24T01:35:43.985Z,16.83
2022-08-24T01:36:43.993Z,16.82
2022-08-24T01:37:43.959Z,16.93
2022-08-24T01:38:43.951Z,16.85
2022-08-24T01:39:43.987Z,16.96
2022-08-24T01:40:43.929Z,17.01
2022-08-24T01:41:43.938Z,16.88
2022-08-24T01:42:43.906Z,16.91
2022-08-24T01:43:43.892Z,16.96
2022-08-24T01:44:43.882Z,16.86
2022-08-24T01:45:43.870Z,16.88
2022-08-24T01:46:43.942Z,16.86
2022-08-24T01:47:43.874Z,16.91
2022-08-24T01:48:43.837Z,16.96
2022-08-24T01:49:43.825Z,16.93
2022-08-24T01:50:43.817Z,16.91
2022-08-24T01:51:43.804Z,16.82
2022-08-24T01:53:04.393Z,16.86
2022-08-24T01:53:44.807Z,16.83
2022-08-24T01:54:43.815Z,16.73
2022-08-24T01:55:43.759Z,16.71
2022-08-24T01:56:43.752Z,16.61
2022-08-24T01:57:43.734Z,16.60
2022-08-24T01:58:43.749Z,16.61
2022-08-24T01:59:43.713Z,16.52
2022-08-24T02:00:43.723Z,16.39
2022-08-24T02:01:43.785Z,16.49
2022-08-24T02:02:43.729Z,16.42
2022-08-24T02:03:43.695Z,16.42
2022-08-24T02:04:44.304Z,16.46
2022-08-24T02:05:43.643Z,16.38
2022-08-24T02:06:43.636Z,16.45
2022-08-24T02:07:43.645Z,16.52
2022-08-24T02:08:43.613Z,16.45
2022-08-24T02:09:43.600Z,16.38
2022-08-24T02:10:48.683Z,16.38
2022-08-24T02:11:44.577Z,16.41
2022-08-24T02:12:43.588Z,16.42
2022-08-24T02:13:43.554Z,16.42
2022-08-24T02:14:43.545Z,16.41
2022-08-24T02:15:43.610Z,16.43
2022-08-24T02:16:43.526Z,16.41
2022-08-24T02:17:43.509Z,16.43
2022-08-24T02:18:43.614Z,16.41
2022-08-24T02:19:43.487Z,16.39
2022-08-24T02:20:43.482Z,16.38
2022-08-24T02:21:43.463Z,16.42
2022-08-24T02:22:43.453Z,16.30
2022-08-24T02:23:43.462Z,16.31
2022-08-24T02:24:43.435Z,16.28
2022-08-24T02:25:43.418Z,16.33
2022-08-24T02:26:43.410Z,16.25
2022-08-24T02:27:43.397Z,16.28
2022-08-24T02:28:43.407Z,16.14
2022-08-24T02:29:43.392Z,16.15
2022-08-24T02:30:43.495Z,16.20
2022-08-24T02:31:43.371Z,16.14
2022-08-24T02:32:43.341Z,16.14
2022-08-24T02:33:43.336Z,16.17
2022-08-24T02:34:43.321Z,16.11
2022-08-24T02:35:43.307Z,16.12
2022-08-24T02:36:43.317Z,16.09
2022-08-24T02:37:43.900Z,16.07
2022-08-24T02:38:43.273Z,16.05
2022-08-24T02:39:43.336Z,16.09
2022-08-24T02:40:43.274Z,16.00
2022-08-24T02:41:43.242Z,15.97
2022-08-24T02:42:43.229Z,15.90
2022-08-24T02:43:43.224Z,15.93
2022-08-24T02:44:43.608Z,15.93
2022-08-24T02:45:45.234Z,15.96
2022-08-24T02:46:43.261Z,15.94
2022-08-24T02:47:43.171Z,15.90
2022-08-24T02:48:43.164Z,15.84
2022-08-24T02:49:43.171Z,15.84
2022-08-24T02:50:43.138Z,15.83
2022-08-24T02:51:44.214Z,15.82
2022-08-24T02:52:43.115Z,15.84
2022-08-24T02:53:43.104Z,15.82
2022-08-24T02:54:43.099Z,15.74
2022-08-24T02:55:43.111Z,15.76
2022-08-24T02:56:43.071Z,15.74
2022-08-24T02:57:43.087Z,15.65
2022-08-24T02:58:43.048Z,15.71
2022-08-24T02:59:43.055Z,15.69
2022-08-24T03:00:43.046Z,15.67
2022-08-24T03:01:43.083Z,15.65
2022-08-24T03:02:43.030Z,15.71
2022-08-24T03:03:42.989Z,15.75
2022-08-24T03:04:43.008Z,15.64
2022-08-24T03:05:43.966Z,15.72
2022-08-24T03:06:42.979Z,15.60
2022-08-24T03:07:42.945Z,15.78
2022-08-24T03:08:42.935Z,15.65
2022-08-24T03:09:44.137Z,15.64
2022-08-24T03:10:42.914Z,15.65
2022-08-24T03:11:45.300Z,15.65
2022-08-24T03:12:42.897Z,15.65
2022-08-24T03:13:42.878Z,15.68
2022-08-24T03:14:42.894Z,15.64
2022-08-24T03:15:42.888Z,15.65
2022-08-24T03:16:42.849Z,15.68
2022-08-24T03:17:43.195Z,15.68
2022-08-24T03:18:42.846Z,15.65
2022-08-24T03:19:42.877Z,15.64
2022-08-24T03:20:42.799Z,15.71
2022-08-24T03:21:42.787Z,15.75
2022-08-24T03:22:42.776Z,15.67
2022-08-24T03:23:42.766Z,15.65
2022-08-24T03:24:42.772Z,15.64
2022-08-24T03:25:42.741Z,15.57
2022-08-24T03:26:44.271Z,15.54
2022-08-24T03:27:42.720Z,15.60
2022-08-24T03:28:44.470Z,15.50
2022-08-24T03:29:42.729Z,15.49
2022-08-24T03:30:42.745Z,15.44
2022-08-24T03:31:42.676Z,15.53
2022-08-24T03:32:42.693Z,15.47
2022-08-24T03:33:42.653Z,15.51
2022-08-24T03:34:42.665Z,15.39
2022-08-24T03:35:42.631Z,15.35
2022-08-24T03:36:42.616Z,15.38
2022-08-24T03:37:42.609Z,15.41
2022-08-24T03:38:42.593Z,15.38
2022-08-24T03:39:42.694Z,15.38
2022-08-24T03:40:42.571Z,15.38
2022-08-24T03:41:42.561Z,15.38
2022-08-24T03:42:42.568Z,15.38
2022-08-24T03:43:42.537Z,15.39
2022-08-24T03:44:42.524Z,15.51
2022-08-24T03:45:42.594Z,15.36
2022-08-24T03:46:42.501Z,15.43
2022-08-24T03:47:42.512Z,15.32
2022-08-24T03:48:42.478Z,15.34
2022-08-24T03:49:42.471Z,15.35
2022-08-24T03:50:42.457Z,15.31
2022-08-24T03:51:42.448Z,15.35
2022-08-24T03:52:42.454Z,15.35
2022-08-24T03:53:42.958Z,15.35
2022-08-24T03:54:42.438Z,15.39
2022-08-24T03:55:42.403Z,15.35
2022-08-24T03:56:42.387Z,15.32
2022-08-24T03:57:42.571Z,15.38
2022-08-24T03:58:42.365Z,15.41
2022-08-24T03:59:46.708Z,15.38
2022-08-24T04:00:43.341Z,15.34
2022-08-24T04:01:42.417Z,15.36
2022-08-24T04:02:42.387Z,15.32
2022-08-24T04:03:42.309Z,15.29
2022-08-24T04:04:42.296Z,15.34
2022-08-24T04:05:42.287Z,15.32
2022-08-24T04:06:42.420Z,15.35
2022-08-24T04:07:42.303Z,15.35
2022-08-24T04:08:42.252Z,15.35
2022-08-24T04:09:42.243Z,15.32
2022-08-24T04:10:42.234Z,15.29
2022-08-24T04:11:42.241Z,15.32
2022-08-24T04:12:42.206Z,15.36
2022-08-24T04:13:42.216Z,15.32
2022-08-24T04:14:42.182Z,15.36
2022-08-24T04:15:42.194Z,15.29
2022-08-24T04:16:42.631Z,15.25
2022-08-24T04:17:42.187Z,15.25
2022-08-24T04:18:42.138Z,15.21
2022-08-24T04:19:42.156Z,15.25
2022-08-24T04:20:42.138Z,15.20
2022-08-24T04:21:42.105Z,15.23
2022-08-24T04:22:42.092Z,15.20
2022-08-24T04:23:47.586Z,15.19
2022-08-24T04:24:43.075Z,15.20
2022-08-24T04:25:42.081Z,15.21
2022-08-24T04:26:45.544Z,15.21
2022-08-24T04:27:42.091Z,15.19
2022-08-24T04:28:42.047Z,15.23
2022-08-24T04:29:42.018Z,15.19
2022-08-24T04:30:42.025Z,15.23
2022-08-24T04:31:42.058Z,15.20
2022-08-24T04:32:41.979Z,15.25
2022-08-24T04:33:41.973Z,15.19
2022-08-24T04:34:41.958Z,15.17
2022-08-24T04:35:41.951Z,15.21
2022-08-24T04:36:41.956Z,15.21
2022-08-24T04:37:41.924Z,15.13
2022-08-24T04:38:41.912Z,15.31
2022-08-24T04:39:42.108Z,15.25
2022-08-24T04:40:41.888Z,15.31
2022-08-24T04:41:41.901Z,15.31
2022-08-24T04:42:41.867Z,15.27
2022-08-24T04:43:41.873Z,15.31
2022-08-24T04:44:41.859Z,15.21
2022-08-24T04:45:41.950Z,15.28
2022-08-24T04:46:41.820Z,15.32
2022-08-24T04:47:41.807Z,15.35
2022-08-24T04:48:41.795Z,15.31
2022-08-24T04:49:41.789Z,15.34
2022-08-24T04:50:41.790Z,15.35
2022-08-24T04:51:41.793Z,15.38
2022-08-24T04:52:41.754Z,15.39
2022-08-24T04:53:41.743Z,15.38
2022-08-24T04:54:41.750Z,15.34
2022-08-24T04:55:41.721Z,15.36
2022-08-24T04:56:41.715Z,15.35
2022-08-24T04:57:41.719Z,15.36
2022-08-24T04:58:41.976Z,15.39
2022-08-24T04:59:41.677Z,15.39
2022-08-24T05:00:41.714Z,15.46
2022-08-24T05:01:41.675Z,15.38
2022-08-24T05:02:44.891Z,15.38
2022-08-24T05:03:41.630Z,15.44
2022-08-24T05:04:41.616Z,15.44
2022-08-24T05:05:41.606Z,15.51
2022-08-24T05:06:41.607Z,15.53
2022-08-24T05:07:41.585Z,15.57
2022-08-24T05:08:41.593Z,15.62
2022-08-24T05:09:41.584Z,15.67
2022-08-24T05:10:41.547Z,15.65
2022-08-24T05:11:41.558Z,15.62
2022-08-24T05:12:42.524Z,15.65
2022-08-24T05:13:41.523Z,15.71
2022-08-24T05:14:41.526Z,15.75
2022-08-24T05:15:41.494Z,15.78
2022-08-24T05:16:52.431Z,15.68
2022-08-24T05:17:42.471Z,15.78
2022-08-24T05:18:42.460Z,15.71
2022-08-24T05:19:41.466Z,15.75
2022-08-24T05:20:41.433Z,15.80
2022-08-24T05:21:41.428Z,15.84
2022-08-24T05:22:41.411Z,15.86
2022-08-24T05:23:43.376Z,15.84
2022-08-24T05:24:41.409Z,15.92
2022-08-24T05:25:41.378Z,15.82
2022-08-24T05:26:41.368Z,15.90
2022-08-24T05:27:41.361Z,15.80
2022-08-24T05:28:41.367Z,15.92
2022-08-24T05:29:41.334Z,15.93
2022-08-24T05:30:42.843Z,15.96
2022-08-24T05:31:41.428Z,16.02
2022-08-24T05:32:41.298Z,16.02
2022-08-24T05:33:41.308Z,16.04
2022-08-24T05:34:41.296Z,16.04
2022-08-24T05:35:43.880Z,16.09
2022-08-24T05:36:41.260Z,16.11
2022-08-24T05:37:41.263Z,16.08
2022-08-24T05:38:41.230Z,16.14
2022-08-24T05:39:41.538Z,16.11
2022-08-24T05:40:41.221Z,16.20
2022-08-24T05:41:43.978Z,16.23
2022-08-24T05:42:41.186Z,16.17
2022-08-24T05:43:41.177Z,16.25
2022-08-24T05:44:41.164Z,16.35
2022-08-24T05:45:41.157Z,16.27
2022-08-24T05:46:41.193Z,16.43
2022-08-24T05:47:41.155Z,16.34
2022-08-24T05:48:41.118Z,16.42
2022-08-24T05:49:41.833Z,16.35
2022-08-24T05:50:41.096Z,16.42
2022-08-24T05:51:41.091Z,16.46
2022-08-24T05:52:41.099Z,16.49
2022-08-24T05:53:41.066Z,16.50
2022-08-24T05:54:41.071Z,16.58
2022-08-24T05:55:41.060Z,16.66
2022-08-24T05:56:41.031Z,16.85
2022-08-24T05:57:41.018Z,16.94
2022-08-24T05:58:41.006Z,17.19
2022-08-24T05:59:41.068Z,17.51
2022-08-24T06:00:41.021Z,17.87
2022-08-24T06:01:44.960Z,18.12
2022-08-24T06:02:41.047Z,18.27
2022-08-24T06:03:40.951Z,18.41
2022-08-24T06:04:40.948Z,18.54
2022-08-24T06:05:40.951Z,18.58
2022-08-24T06:06:40.936Z,18.78
2022-08-24T06:07:40.907Z,18.67
2022-08-24T06:08:41.810Z,18.78
2022-08-24T06:09:40.886Z,18.81
2022-08-24T06:10:40.956Z,18.87
2022-08-24T06:11:40.862Z,18.82
2022-08-24T06:12:40.852Z,18.78
2022-08-24T06:13:40.841Z,18.88
2022-08-24T06:14:40.849Z,18.82
2022-08-24T06:15:40.819Z,18.87
2022-08-24T06:16:40.821Z,18.99
2022-08-24T06:17:40.913Z,19.02
2022-08-24T06:18:40.801Z,18.99
2022-08-24T06:19:40.791Z,19.02
2022-08-24T06:20:40.765Z,19.04
2022-08-24T06:21:40.749Z,19.00
2022-08-24T06:22:40.758Z,19.11
2022-08-24T06:23:40.726Z,19.07
2022-08-24T06:24:40.713Z,19.13
2022-08-24T06:25:40.726Z,19.08
2022-08-24T06:26:40.695Z,19.18
2022-08-24T06:27:40.680Z,19.16
2022-08-24T06:28:40.668Z,19.13
2022-08-24T06:29:40.658Z,19.16
2022-08-24T06:30:40.645Z,19.21
2022-08-24T06:31:40.696Z,19.28
2022-08-24T06:32:40.623Z,19.29
2022-08-24T06:33:40.617Z,19.23
2022-08-24T06:34:40.600Z,19.23
2022-08-24T06:35:43.609Z,19.31
2022-08-24T06:36:41.596Z,19.32
2022-08-24T06:37:40.566Z,19.33
2022-08-24T06:38:40.555Z,19.39
2022-08-24T06:39:40.544Z,19.36
2022-08-24T06:40:40.531Z,19.37
2022-08-24T06:41:40.542Z,19.40
2022-08-24T06:42:40.509Z,19.33
2022-08-24T06:43:40.499Z,19.47
2022-08-24T06:44:40.487Z,19.50
2022-08-24T06:45:40.476Z,19.51
2022-08-24T06:46:40.577Z,19.54
2022-08-24T06:47:40.479Z,19.59
2022-08-24T06:48:40.442Z,19.56
2022-08-24T06:49:40.432Z,19.74
2022-08-24T06:50:40.420Z,19.65
2022-08-24T06:51:40.434Z,19.74
2022-08-24T06:52:40.402Z,19.76
2022-08-24T06:53:40.386Z,19.88
2022-08-24T06:54:40.374Z,19.88
2022-08-24T06:55:40.364Z,19.84
2022-08-24T06:56:40.372Z,19.84
2022-08-24T06:57:40.342Z,19.88
2022-08-24T06:58:40.356Z,19.96
2022-08-24T06:59:40.322Z,20.01
2022-08-24T07:00:40.307Z,20.02
2022-08-24T07:01:40.387Z,20.11
2022-08-24T07:02:40.344Z,20.03
2022-08-24T07:03:40.278Z,20.02
2022-08-24T07:04:40.296Z,20.11
2022-08-24T07:05:40.254Z,20.28
2022-08-24T07:06:40.263Z,20.33
2022-08-24T07:07:40.276Z,20.39
2022-08-24T07:08:40.239Z,20.39
2022-08-24T07:09:40.215Z,20.51
2022-08-24T07:10:40.208Z,20.58
2022-08-24T07:11:40.184Z,20.69
2022-08-24T07:12:40.194Z,20.95
2022-08-24T07:13:40.165Z,20.97
2022-08-24T07:14:40.150Z,21.14
2022-08-24T07:15:40.235Z,21.29
2022-08-24T07:16:40.127Z,21.44
2022-08-24T07:17:40.150Z,21.62
2022-08-24T07:18:41.232Z,21.82
2022-08-24T07:19:40.186Z,21.69
2022-08-24T07:20:40.082Z,21.72
2022-08-24T07:21:40.081Z,21.88
2022-08-24T07:22:40.061Z,22.06
2022-08-24T07:23:41.963Z,22.20
2022-08-24T07:24:40.061Z,22.47
2022-08-24T07:25:41.381Z,22.54
2022-08-24T07:26:40.041Z,22.67
2022-08-24T07:27:40.006Z,22.85
2022-08-24T07:28:40.016Z,23.10
2022-08-24T07:29:59.964Z,23.31
2022-08-24T07:30:40.971Z,23.31
2022-08-24T07:31:40.070Z,23.33
2022-08-24T07:32:39.948Z,23.15
2022-08-24T07:33:39.940Z,23.28
2022-08-24T07:34:39.948Z,23.43
2022-08-24T07:35:39.940Z,23.63
2022-08-24T07:36:44.147Z,23.90
2022-08-24T07:37:41.756Z,24.16
2022-08-24T07:38:39.884Z,24.39
2022-08-24T07:39:39.885Z,24.47
2022-08-24T07:41:05.113Z,24.57
2022-08-24T07:41:56.803Z,24.68
2022-08-24T07:42:40.853Z,24.64
2022-08-24T07:43:42.968Z,24.77
2022-08-24T07:44:39.812Z,24.88
2022-08-24T07:45:39.801Z,25.17
2022-08-24T07:46:39.880Z,25.23
2022-08-24T07:47:46.122Z,25.20
2022-08-24T07:48:40.769Z,24.76
2022-08-24T07:49:39.818Z,24.65
2022-08-24T07:50:39.748Z,24.77
2022-08-24T07:51:40.025Z,24.85
2022-08-24T07:52:40.744Z,24.77
2022-08-24T07:53:53.119Z,25.03
2022-08-24T07:54:40.703Z,25.14
2022-08-24T07:55:45.952Z,25.25
2022-08-24T07:56:40.680Z,25.35
2022-08-24T07:57:39.693Z,25.35
2022-08-24T07:58:39.660Z,25.47
2022-08-24T07:59:39.647Z,25.65
2022-08-24T08:00:39.657Z,25.94
2022-08-24T08:01:39.750Z,25.80
2022-08-24T08:02:39.651Z,25.77
2022-08-24T08:03:39.650Z,25.57
2022-08-24T08:04:39.617Z,25.42
2022-08-24T08:05:39.582Z,25.67
2022-08-24T08:06:39.571Z,25.94
2022-08-24T08:07:39.559Z,26.20
2022-08-24T08:08:39.550Z,26.02
2022-08-24T08:09:39.564Z,26.39
2022-08-24T08:10:39.546Z,26.60
2022-08-24T08:11:39.514Z,26.80
2022-08-24T08:12:39.528Z,26.95
2022-08-24T08:14:39.483Z,26.76
2022-08-24T08:15:39.515Z,26.70
2022-08-24T08:16:39.465Z,26.80
2022-08-24T08:17:39.449Z,26.75
2022-08-24T08:18:39.442Z,26.84
2022-08-24T08:19:39.425Z,26.82
2022-08-24T08:20:39.436Z,27.04
2022-08-24T08:21:39.404Z,27.22
2022-08-24T08:22:39.394Z,27.28
2022-08-24T08:23:39.402Z,27.28
2022-08-24T08:24:39.424Z,27.21
2022-08-24T08:25:39.360Z,27.29
2022-08-24T08:26:39.351Z,27.28
2022-08-24T08:27:39.370Z,27.39
2022-08-24T08:28:39.563Z,27.39
2022-08-24T08:29:39.318Z,27.43
2022-08-24T08:30:39.357Z,27.66
2022-08-24T08:31:39.295Z,27.72
2022-08-24T08:32:39.284Z,27.92
2022-08-24T08:33:39.278Z,28.22
2022-08-24T08:34:39.284Z,28.40
2022-08-24T08:35:39.251Z,28.37
2022-08-24T08:36:39.242Z,28.52
2022-08-24T08:37:39.230Z,28.64
2022-08-24T08:38:39.221Z,28.90
2022-08-24T08:39:39.230Z,29.12
2022-08-24T08:40:39.198Z,29.30
2022-08-24T08:41:39.544Z,29.39
2022-08-24T08:42:39.179Z,29.45
2022-08-24T08:43:39.164Z,29.58
2022-08-24T08:44:39.155Z,29.58
2022-08-24T08:45:39.164Z,29.49
2022-08-24T08:46:40.892Z,29.33
2022-08-24T08:47:39.121Z,29.36
2022-08-24T08:48:39.134Z,29.52
2022-08-24T08:49:39.099Z,29.74
2022-08-24T08:50:39.112Z,29.65
2022-08-24T08:51:39.083Z,29.60
2022-08-24T08:52:39.072Z,29.37
2022-08-24T08:53:39.078Z,29.28
2022-08-24T08:54:39.047Z,29.36
2022-08-24T08:55:39.037Z,29.55
2022-08-24T08:56:39.026Z,29.48
2022-08-24T08:57:39.014Z,29.49
2022-08-24T08:58:39.097Z,29.61
2022-08-24T08:59:38.993Z,29.82
2022-08-24T09:00:39.066Z,29.95
2022-08-24T09:01:44.173Z,30.05
2022-08-24T09:02:39.961Z,30.10
2022-08-24T09:03:39.068Z,30.15
2022-08-24T09:04:39.057Z,29.94
2022-08-24T09:05:38.927Z,30.08
2022-08-24T09:06:38.917Z,30.20
2022-08-24T09:07:38.907Z,30.24
2022-08-24T09:08:38.918Z,30.34
2022-08-24T09:09:38.885Z,30.20
2022-08-24T09:10:38.875Z,29.97
2022-08-24T09:11:38.864Z,30.08
2022-08-24T09:12:38.854Z,30.39
2022-08-24T09:13:38.861Z,30.38
2022-08-24T09:14:38.831Z,30.46
2022-08-24T09:15:38.819Z,30.11
2022-08-24T09:16:38.872Z,30.26
2022-08-24T09:17:38.823Z,30.35
2022-08-24T09:18:38.788Z,30.46
2022-08-24T09:19:38.775Z,30.77
2022-08-24T09:20:38.787Z,30.80
2022-08-24T09:21:38.760Z,30.94
2022-08-24T09:22:38.746Z,30.94
2022-08-24T09:23:38.732Z,30.79
2022-08-24T09:24:38.746Z,30.54
2022-08-24T09:25:38.712Z,30.72
2022-08-24T09:26:38.701Z,30.91
2022-08-24T09:27:38.690Z,30.69
2022-08-24T09:28:38.703Z,30.69
2022-08-24T09:29:38.688Z,30.57
2022-08-24T09:30:38.695Z,30.45
2022-08-24T09:31:39.660Z,30.31
2022-08-24T09:32:39.215Z,30.10
2022-08-24T09:33:38.624Z,29.85
2022-08-24T09:34:38.636Z,29.68
2022-08-24T09:35:38.604Z,29.65
2022-08-24T09:36:38.596Z,29.97
2022-08-24T09:37:41.688Z,30.26
2022-08-24T09:38:38.572Z,30.55
2022-08-24T09:39:38.592Z,30.73
2022-08-24T09:40:38.551Z,30.42
2022-08-24T09:41:38.543Z,30.39
2022-08-24T09:42:38.531Z,30.62
2022-08-24T09:43:38.542Z,30.79
2022-08-24T09:44:38.509Z,31.02
2022-08-24T09:45:38.546Z,31.13
2022-08-24T09:46:38.487Z,31.14
2022-08-24T09:47:38.474Z,31.20
2022-08-24T09:48:38.491Z,31.21
2022-08-24T09:49:38.454Z,31.38
2022-08-24T09:50:38.445Z,31.56
2022-08-24T09:51:38.432Z,31.65
2022-08-24T09:52:38.447Z,31.51
2022-08-24T09:53:38.410Z,31.56
2022-08-24T09:54:38.406Z,31.69
2022-08-24T09:55:38.411Z,31.54
2022-08-24T09:56:38.384Z,31.31
2022-08-24T09:57:59.492Z,31.16
2022-08-24T09:58:39.379Z,31.13
2022-08-24T09:59:38.369Z,31.28
2022-08-24T10:00:38.367Z,31.34
2022-08-24T10:01:38.379Z,31.58
2022-08-24T10:02:38.376Z,31.85
2022-08-24T10:03:38.836Z,31.84
2022-08-24T10:04:38.449Z,31.78
2022-08-24T10:05:38.493Z,31.92
2022-08-24T10:06:38.305Z,32.10
2022-08-24T10:07:38.261Z,32.23
2022-08-24T10:08:38.252Z,32.04
2022-08-24T10:09:38.265Z,31.69
2022-08-24T10:10:38.232Z,31.69
2022-08-24T10:11:38.239Z,31.89
2022-08-24T10:12:38.211Z,31.93
2022-08-24T10:13:38.299Z,32.10
2022-08-24T10:14:38.212Z,32.30
2022-08-24T10:15:38.178Z,32.35
2022-08-24T10:16:38.247Z,32.33
2022-08-24T10:17:38.156Z,32.15
2022-08-24T10:18:38.172Z,32.11
2022-08-24T10:19:38.135Z,32.07
2022-08-24T10:20:38.262Z,32.30
2022-08-24T10:21:38.114Z,32.41
2022-08-24T10:22:38.124Z,32.47
2022-08-24T10:23:38.101Z,32.26
2022-08-24T10:24:38.083Z,32.10
2022-08-24T10:25:38.071Z,31.72
2022-08-24T10:26:38.082Z,31.91
2022-08-24T10:27:38.052Z,32.11
2022-08-24T10:28:38.063Z,32.32
2022-08-24T10:29:38.028Z,32.40
2022-08-24T10:30:38.030Z,32.40
2022-08-24T10:31:38.066Z,32.52
2022-08-24T10:32:38.031Z,32.48
2022-08-24T10:33:37.994Z,32.33
2022-08-24T10:34:37.978Z,32.29
2022-08-24T10:35:37.965Z,32.00
2022-08-24T10:36:37.958Z,31.85
2022-08-24T10:37:42.392Z,31.96
2022-08-24T10:38:40.864Z,31.99
2022-08-24T10:39:37.925Z,31.86
2022-08-24T10:40:37.988Z,31.56
2022-08-24T10:41:39.366Z,31.56
2022-08-24T10:42:37.915Z,31.41
2022-08-24T10:43:37.883Z,31.23
2022-08-24T10:44:37.871Z,31.32
2022-08-24T10:45:37.894Z,31.68
2022-08-24T10:46:37.851Z,31.92
2022-08-24T10:47:37.859Z,32.10
2022-08-24T10:48:37.831Z,32.03
2022-08-24T10:49:37.838Z,31.92
2022-08-24T10:50:37.810Z,32.08
2022-08-24T10:51:37.801Z,32.19
2022-08-24T10:52:37.787Z,32.41
2022-08-24T10:53:37.777Z,32.47
2022-08-24T10:54:38.070Z,32.51
2022-08-24T10:55:37.754Z,32.55
2022-08-24T10:56:37.748Z,31.91
2022-08-24T10:57:37.756Z,31.65
2022-08-24T10:58:37.751Z,31.26
2022-08-24T10:59:37.735Z,31.19
2022-08-24T11:00:37.704Z,31.32
2022-08-24T11:01:37.774Z,31.48
2022-08-24T11:02:37.772Z,31.75
2022-08-24T11:03:37.690Z,32.11
2022-08-24T11:04:37.661Z,32.30
2022-08-24T11:05:37.670Z,32.40
2022-08-24T11:06:37.639Z,32.21
2022-08-24T11:07:37.643Z,32.26
2022-08-24T11:08:37.617Z,32.23
2022-08-24T11:09:37.751Z,31.92
2022-08-24T11:10:37.596Z,31.72
2022-08-24T11:11:40.549Z,31.58
2022-08-24T11:12:37.595Z,31.81
2022-08-24T11:13:37.564Z,32.06
2022-08-24T11:14:37.577Z,32.18
2022-08-24T11:15:37.542Z,32.28
2022-08-24T11:16:37.617Z,32.47
2022-08-24T11:17:37.545Z,32.70
2022-08-24T11:18:37.513Z,32.62
2022-08-24T11:19:37.612Z,32.40
2022-08-24T11:20:37.491Z,32.26
2022-08-24T11:21:37.481Z,31.89
2022-08-24T11:22:37.489Z,31.61
2022-08-24T11:23:37.478Z,31.36
2022-08-24T11:24:37.450Z,31.29
2022-08-24T11:25:37.437Z,31.70
2022-08-24T11:26:37.427Z,31.75
2022-08-24T11:27:37.414Z,31.54
2022-08-24T11:28:37.430Z,31.50
2022-08-24T11:29:37.394Z,31.51
2022-08-24T11:30:37.385Z,31.53
2022-08-24T11:31:37.411Z,31.93
2022-08-24T11:32:37.366Z,32.26
2022-08-24T11:33:37.352Z,32.47
2022-08-24T11:34:37.368Z,32.51
2022-08-24T11:35:37.399Z,32.45
2022-08-24T11:36:37.325Z,32.28
2022-08-24T11:37:37.315Z,32.08
2022-08-24T11:38:37.302Z,31.81
2022-08-24T11:39:38.311Z,31.70
2022-08-24T11:40:37.291Z,31.73
2022-08-24T11:41:37.269Z,31.96
2022-08-24T11:42:37.260Z,31.80
2022-08-24T11:43:37.270Z,32.00
2022-08-24T11:44:37.268Z,32.18
2022-08-24T11:45:37.235Z,32.29
2022-08-24T11:46:37.321Z,32.37
2022-08-24T11:47:37.207Z,32.67
2022-08-24T11:48:37.449Z,32.77
2022-08-24T11:49:37.205Z,32.87
2022-08-24T11:50:37.171Z,33.06
2022-08-24T11:51:37.164Z,33.11
2022-08-24T11:52:37.157Z,33.23
2022-08-24T11:54:37.146Z,33.15
2022-08-24T11:55:46.639Z,33.29
2022-08-24T11:56:38.111Z,33.23
2022-08-24T11:57:37.099Z,33.16
2022-08-24T11:58:37.107Z,33.14
2022-08-24T11:59:37.084Z,33.12
2022-08-24T12:00:37.068Z,33.03
2022-08-24T12:01:42.770Z,33.04
2022-08-24T12:02:38.187Z,33.11
2022-08-24T12:03:37.036Z,33.07
2022-08-24T12:04:37.051Z,33.06
2022-08-24T12:05:37.022Z,32.94
2022-08-24T12:06:37.008Z,32.93
2022-08-24T12:07:36.992Z,32.93
2022-08-24T12:08:36.980Z,33.00
2022-08-24T12:09:36.996Z,32.79
2022-08-24T12:10:36.974Z,32.79
2022-08-24T12:11:36.951Z,32.81
2022-08-24T12:12:36.962Z,32.65
2022-08-24T12:13:36.928Z,32.43
2022-08-24T12:14:36.917Z,32.37
2022-08-24T12:15:37.024Z,32.37
2022-08-24T12:16:36.972Z,32.56
2022-08-24T12:17:36.910Z,32.38
2022-08-24T12:18:36.897Z,32.38
2022-08-24T12:19:36.864Z,32.35
2022-08-24T12:20:36.882Z,32.37
2022-08-24T12:21:36.845Z,32.41
2022-08-24T12:22:36.836Z,32.48
2022-08-24T12:23:36.823Z,32.43
2022-08-24T12:24:36.812Z,32.30
2022-08-24T12:25:36.801Z,32.30
2022-08-24T12:26:36.809Z,32.38
2022-08-24T12:27:36.780Z,32.33
2022-08-24T12:28:36.781Z,32.30
2022-08-24T12:29:36.759Z,32.22
2022-08-24T12:30:36.749Z,32.18
2022-08-24T12:31:36.834Z,32.28
2022-08-24T12:32:36.727Z,32.22
2022-08-24T12:33:37.736Z,32.32
2022-08-24T12:34:36.706Z,32.22
2022-08-24T12:35:36.695Z,32.33
2022-08-24T12:36:36.705Z,32.37
2022-08-24T12:37:36.675Z,32.38
2022-08-24T12:38:36.684Z,32.33
2022-08-24T12:39:36.654Z,32.18
2022-08-24T12:40:36.663Z,31.96
2022-08-24T12:41:36.631Z,31.96
2022-08-24T12:42:36.620Z,31.92
2022-08-24T12:43:36.611Z,31.96
2022-08-24T12:44:36.680Z,31.86
2022-08-24T12:45:36.616Z,31.63
2022-08-24T12:46:36.629Z,31.51
2022-08-24T12:47:36.568Z,31.38
2022-08-24T12:48:36.576Z,31.38
2022-08-24T12:49:36.549Z,31.25
2022-08-24T12:50:36.537Z,31.21
2022-08-24T12:51:36.529Z,31.14
2022-08-24T12:52:36.516Z,31.14
2022-08-24T12:53:36.526Z,31.25
2022-08-24T12:54:36.514Z,31.14